createdAt,value
2023-02-03T00:01:43.175Z,4.68
2023-02-03T00:04:11.657Z,4.80
2023-02-03T00:06:40.020Z,4.72
2023-02-03T00:09:09.062Z,4.55
2023-02-03T00:11:39.695Z,4.50
2023-02-03T00:14:09.955Z,4.53
2023-02-03T00:16:38.622Z,4.28
2023-02-03T00:19:08.211Z,4.00
2023-02-03T00:21:37.238Z,3.70
2023-02-03T00:24:08.714Z,3.53
2023-02-03T00:26:42.584Z,3.67
2023-02-03T00:29:11.304Z,3.92
2023-02-03T00:31:39.589Z,3.53
2023-02-03T00:34:08.120Z,3.70
2023-02-03T00:36:38.669Z,4.13
2023-02-03T00:39:09.529Z,3.85
2023-02-03T00:41:39.712Z,3.90
2023-02-03T00:44:08.712Z,4.28
2023-02-03T00:46:37.117Z,3.72
2023-02-03T00:49:10.490Z,3.97
2023-02-03T00:51:38.779Z,3.97
2023-02-03T00:54:07.126Z,4.00
2023-02-03T00:56:36.602Z,3.80
2023-02-03T00:59:06.932Z,4.20
2023-02-03T01:01:35.685Z,3.60
2023-02-03T01:04:05.564Z,3.47
2023-02-03T01:06:34.270Z,3.38
2023-02-03T01:09:03.030Z,3.47
2023-02-03T01:11:33.012Z,3.60
2023-02-03T01:14:03.617Z,3.40
2023-02-03T01:16:36.488Z,3.30
2023-02-03T01:19:05.567Z,3.20
2023-02-03T01:21:38.502Z,3.20
2023-02-03T01:24:09.109Z,3.58
2023-02-03T01:26:39.801Z,3.30
2023-02-03T01:29:08.508Z,3.55
2023-02-03T01:31:42.772Z,3.60
2023-02-03T01:34:13.948Z,3.15
2023-02-03T01:36:43.710Z,3.40
2023-02-03T01:39:13.286Z,3.50
2023-02-03T01:41:42.747Z,3.20
2023-02-03T01:44:44.929Z,3.00
2023-02-03T01:47:26.770Z,3.00
2023-02-03T01:50:01.045Z,3.50
2023-02-03T01:52:31.933Z,3.63
2023-02-03T01:55:04.110Z,2.88
2023-02-03T01:57:36.398Z,3.00
2023-02-03T02:00:09.950Z,3.30
2023-02-03T02:02:40.307Z,3.38
2023-02-03T02:05:13.641Z,2.85
2023-02-03T02:07:44.727Z,3.10
2023-02-03T02:10:13.764Z,3.07
2023-02-03T02:12:42.840Z,3.00
2023-02-03T02:15:11.953Z,3.10
2023-02-03T02:18:03.257Z,3.08
2023-02-03T02:20:41.413Z,3.03
2023-02-03T02:23:38.116Z,2.80
2023-02-03T02:26:45.251Z,3.05
2023-02-03T02:29:57.077Z,3.20
2023-02-03T02:32:41.474Z,3.13
2023-02-03T02:35:21.323Z,2.67
2023-02-03T02:37:55.317Z,2.53
2023-02-03T02:40:30.014Z,3.03
2023-02-03T02:43:09.454Z,2.88
2023-02-03T02:45:48.973Z,2.60
2023-02-03T02:48:25.030Z,2.80
2023-02-03T02:50:57.033Z,2.95
2023-02-03T02:53:28.348Z,2.83
2023-02-03T02:55:59.209Z,2.97
2023-02-03T02:58:30.244Z,2.80
2023-02-03T03:01:00.123Z,3.23
2023-02-03T03:03:31.997Z,3.05
2023-02-03T03:06:03.681Z,3.00
2023-02-03T03:08:40.859Z,2.85
2023-02-03T03:11:10.035Z,3.05
2023-02-03T03:13:45.646Z,2.80
2023-02-03T03:16:19.932Z,2.72
2023-02-03T03:18:53.126Z,2.90
2023-02-03T03:21:27.065Z,2.83
2023-02-03T03:23:58.790Z,2.92
2023-02-03T03:26:34.270Z,3.25
2023-02-03T03:29:12.225Z,2.90
2023-02-03T03:31:43.360Z,2.78
2023-02-03T03:34:15.817Z,3.25
2023-02-03T03:36:49.978Z,3.10
2023-02-03T03:39:27.671Z,2.95
2023-02-03T03:42:06.498Z,2.90
2023-02-03T03:44:39.220Z,3.03
2023-02-03T03:47:13.552Z,3.20
2023-02-03T03:49:46.227Z,3.45
2023-02-03T03:52:21.449Z,2.97
2023-02-03T03:54:52.842Z,2.90
2023-02-03T03:57:27.318Z,2.90
2023-02-03T03:59:56.432Z,3.00
2023-02-03T04:02:25.607Z,2.80
2023-02-03T04:05:00.327Z,2.80
2023-02-03T04:07:40.784Z,2.90
2023-02-03T04:10:17.585Z,2.80
2023-02-03T04:12:53.958Z,2.95
2023-02-03T04:15:23.135Z,3.15
2023-02-03T04:17:52.358Z,3.00
2023-02-03T04:20:22.699Z,2.90
2023-02-03T04:22:51.564Z,3.00
2023-02-03T04:25:23.871Z,2.97
2023-02-03T04:27:53.680Z,3.50
2023-02-03T04:30:22.017Z,3.20
2023-02-03T04:32:50.740Z,3.50
2023-02-03T04:35:20.049Z,3.50
2023-02-03T04:37:50.207Z,3.25
2023-02-03T04:40:19.928Z,3.60
2023-02-03T04:42:48.341Z,3.17
2023-02-03T04:45:16.920Z,3.75
2023-02-03T04:47:45.498Z,3.50
2023-02-03T04:50:15.259Z,3.60
2023-02-03T04:52:47.349Z,3.45
2023-02-03T04:55:17.310Z,3.40
2023-02-03T04:57:45.937Z,3.33
2023-02-03T05:00:17.635Z,3.13
2023-02-03T05:02:46.587Z,3.30
2023-02-03T05:05:15.103Z,3.60
2023-02-03T05:07:43.904Z,4.13
2023-02-03T05:10:12.957Z,4.75
2023-02-03T05:12:43.095Z,3.85
2023-02-03T05:15:11.906Z,3.90
2023-02-03T05:17:40.404Z,3.83
2023-02-03T05:20:10.651Z,3.80
2023-02-03T05:22:42.125Z,3.88
2023-02-03T05:25:11.163Z,3.65
2023-02-03T05:27:40.525Z,3.40
2023-02-03T05:30:14.559Z,3.80
2023-02-03T05:32:43.196Z,3.50
2023-02-03T05:35:11.651Z,3.70
2023-02-03T05:37:40.515Z,3.40
2023-02-03T05:40:28.160Z,4.00
2023-02-03T05:42:56.993Z,4.30
2023-02-03T05:45:26.697Z,3.97
2023-02-03T05:47:55.218Z,4.00
2023-02-03T05:50:25.561Z,3.90
2023-02-03T05:52:53.955Z,4.05
2023-02-03T05:55:22.194Z,3.85
2023-02-03T05:57:52.106Z,3.80
2023-02-03T06:00:22.143Z,4.25
2023-02-03T06:02:56.907Z,3.70
2023-02-03T06:05:26.654Z,4.07
2023-02-03T06:07:55.741Z,4.60
2023-02-03T06:10:24.178Z,3.85
2023-02-03T06:12:53.367Z,4.30
2023-02-03T06:15:23.476Z,3.88
2023-02-03T06:17:54.379Z,3.90
2023-02-03T06:20:23.200Z,4.15
2023-02-03T06:22:52.694Z,3.95
2023-02-03T06:25:21.142Z,3.92
2023-02-03T06:27:49.755Z,4.20
2023-02-03T06:30:19.751Z,4.28
2023-02-03T06:32:49.628Z,4.45
2023-02-03T06:35:19.884Z,5.80
2023-02-03T06:37:48.990Z,6.00
2023-02-03T06:40:17.791Z,8.35
2023-02-03T06:42:49.213Z,11.07
2023-02-03T06:45:18.315Z,9.45
2023-02-03T06:47:47.553Z,9.90
2023-02-03T06:50:18.068Z,8.93
2023-02-03T06:52:48.211Z,10.13
2023-02-03T06:55:18.131Z,8.65
2023-02-03T06:57:47.952Z,6.45
2023-02-03T07:00:19.144Z,5.60
2023-02-03T07:02:55.908Z,5.53
2023-02-03T07:05:25.444Z,5.53
2023-02-03T07:07:57.272Z,5.50
2023-02-03T07:10:25.685Z,5.25
2023-02-03T07:12:54.067Z,4.93
2023-02-03T07:15:22.532Z,5.72
2023-02-03T07:17:55.821Z,5.90
2023-02-03T07:20:26.784Z,8.57
2023-02-03T07:22:58.159Z,6.43
2023-02-03T07:25:27.753Z,6.40
2023-02-03T07:27:57.658Z,6.32
2023-02-03T07:30:29.252Z,6.95
2023-02-03T07:33:02.090Z,6.07
2023-02-03T07:35:30.737Z,6.40
2023-02-03T07:38:01.274Z,6.72
2023-02-03T07:40:30.025Z,7.18
2023-02-03T07:42:59.905Z,7.30
2023-02-03T07:45:28.987Z,7.70
2023-02-03T07:47:58.670Z,8.23
2023-02-03T07:50:29.026Z,8.02
2023-02-03T07:52:57.739Z,7.85
2023-02-03T07:55:29.796Z,7.43
2023-02-03T07:57:58.886Z,8.35
2023-02-03T08:00:28.043Z,8.43
2023-02-03T08:02:56.460Z,10.98
2023-02-03T08:05:24.787Z,8.45
2023-02-03T08:07:53.361Z,7.75
2023-02-03T08:10:24.769Z,8.15
2023-02-03T08:12:56.339Z,7.68
2023-02-03T08:15:24.562Z,6.55
2023-02-03T08:17:52.938Z,6.10
2023-02-03T08:20:21.513Z,4.97
2023-02-03T08:22:49.917Z,5.07
2023-02-03T08:25:19.015Z,4.30
2023-02-03T08:27:48.523Z,4.63
2023-02-03T08:30:18.559Z,3.97
2023-02-03T08:32:49.464Z,3.88
2023-02-03T08:35:18.003Z,4.22
2023-02-03T08:37:46.311Z,4.88
2023-02-03T08:40:14.921Z,4.00
2023-02-03T08:42:43.453Z,3.60
2023-02-03T08:45:12.180Z,3.60
2023-02-03T08:47:41.991Z,3.70
2023-02-03T08:50:11.985Z,3.45
2023-02-03T08:52:40.385Z,3.40
2023-02-03T08:55:09.453Z,3.65
2023-02-03T08:57:42.073Z,3.60
2023-02-03T09:00:12.355Z,3.45
2023-02-03T09:02:42.015Z,3.63
2023-02-03T09:05:11.174Z,3.88
2023-02-03T09:07:39.654Z,3.00
2023-02-03T09:10:09.359Z,3.28
2023-02-03T09:12:38.225Z,3.63
2023-02-03T09:15:08.440Z,9.25
2023-02-03T09:17:36.743Z,8.25
2023-02-03T09:20:07.614Z,4.53
2023-02-03T09:22:36.324Z,4.30
2023-02-03T09:25:05.795Z,4.28
2023-02-03T09:27:34.848Z,6.53
2023-02-03T09:30:03.702Z,5.90
2023-02-03T09:32:34.012Z,5.60
2023-02-03T09:35:02.926Z,5.93
2023-02-03T09:37:35.996Z,7.15
2023-02-03T09:40:05.635Z,7.38
2023-02-03T09:42:56.908Z,7.75
2023-02-03T09:45:28.280Z,9.00
2023-02-03T09:48:02.485Z,10.02
2023-02-03T09:50:35.310Z,9.88
2023-02-03T09:53:09.786Z,10.45
2023-02-03T09:55:45.343Z,11.82
2023-02-03T09:58:15.658Z,23.20
2023-02-03T10:00:49.338Z,22.67
2023-02-03T10:03:30.763Z,22.35
2023-02-03T10:06:15.280Z,15.25
2023-02-03T10:09:13.932Z,17.55
2023-02-03T10:11:54.774Z,16.00
2023-02-03T10:14:38.844Z,15.73
2023-02-03T10:17:20.164Z,15.95
2023-02-03T10:19:52.645Z,17.73
2023-02-03T10:22:25.871Z,16.50
2023-02-03T10:25:02.364Z,16.92
2023-02-03T10:27:34.461Z,16.15
2023-02-03T10:30:09.143Z,17.17
2023-02-03T10:32:37.960Z,17.33
2023-02-03T10:35:13.237Z,18.60
2023-02-03T10:37:46.038Z,19.30
2023-02-03T10:40:17.577Z,20.13
2023-02-03T10:43:07.055Z,20.00
2023-02-03T10:45:39.080Z,20.63
2023-02-03T10:50:45.750Z,20.30
2023-02-03T10:53:26.033Z,20.48
2023-02-03T10:56:03.824Z,20.48
2023-02-03T10:58:34.388Z,19.77
2023-02-03T11:01:11.372Z,17.90
2023-02-03T11:03:42.207Z,17.63
2023-02-03T11:06:12.862Z,18.60
2023-02-03T11:08:45.344Z,22.40
2023-02-03T11:11:25.409Z,20.58
2023-02-03T11:14:12.107Z,18.95
2023-02-03T11:16:43.405Z,17.75
2023-02-03T11:19:19.236Z,18.55
2023-02-03T11:21:50.724Z,19.10
2023-02-03T11:24:21.873Z,19.60
2023-02-03T11:26:56.339Z,19.85
2023-02-03T11:29:28.591Z,18.27
2023-02-03T11:31:58.930Z,19.85
2023-02-03T11:34:30.781Z,19.85
2023-02-03T11:36:59.936Z,19.63
2023-02-03T11:39:30.304Z,29.65
2023-02-03T11:42:02.653Z,25.90
2023-02-03T11:44:33.713Z,24.50
2023-02-03T11:47:06.377Z,19.25
2023-02-03T11:50:02.254Z,18.13
2023-02-03T11:52:58.482Z,19.25
2023-02-03T11:55:40.069Z,18.17
2023-02-03T11:58:26.036Z,17.08
2023-02-03T12:01:01.977Z,16.30
2023-02-03T12:04:08.163Z,17.55
2023-02-03T12:07:01.686Z,15.02
2023-02-03T12:09:40.702Z,14.32
2023-02-03T12:12:28.272Z,14.35
2023-02-03T12:15:08.401Z,14.73
2023-02-03T12:18:05.627Z,15.52
2023-02-03T12:20:45.803Z,16.70
2023-02-03T12:23:32.016Z,16.77
2023-02-03T12:26:10.545Z,17.65
2023-02-03T12:28:49.831Z,17.90
2023-02-03T12:31:31.797Z,19.35
2023-02-03T12:34:14.141Z,18.48
2023-02-03T12:36:47.374Z,19.38
2023-02-03T12:39:23.953Z,19.60
2023-02-03T12:42:01.504Z,17.70
2023-02-03T12:44:35.090Z,17.33
2023-02-03T12:47:13.414Z,18.52
2023-02-03T12:49:46.631Z,17.13
2023-02-03T12:52:25.084Z,18.20
2023-02-03T12:55:01.364Z,20.13
2023-02-03T12:57:35.934Z,18.42
2023-02-03T13:00:27.118Z,18.02
2023-02-03T13:03:07.603Z,17.80
2023-02-03T13:05:44.938Z,16.40
2023-02-03T13:08:29.789Z,16.58
2023-02-03T13:11:08.436Z,17.15
2023-02-03T13:13:43.977Z,18.50
2023-02-03T13:16:15.079Z,18.38
2023-02-03T13:21:19.942Z,23.30
2023-02-03T13:23:50.381Z,25.13
2023-02-03T13:26:57.199Z,34.63
2023-02-03T13:29:43.852Z,23.05
2023-02-03T13:32:26.723Z,22.30
2023-02-03T13:35:24.799Z,21.35
2023-02-03T13:38:32.922Z,22.33
2023-02-03T13:41:07.417Z,24.52
2023-02-03T13:43:40.063Z,29.15
2023-02-03T13:46:21.252Z,26.73
2023-02-03T13:48:57.780Z,27.73
2023-02-03T13:51:34.602Z,27.08
2023-02-03T13:54:09.896Z,25.50
2023-02-03T13:56:38.667Z,25.25
2023-02-03T13:59:28.936Z,26.50
2023-02-03T14:02:45.790Z,26.30
2023-02-03T14:05:42.963Z,28.27
2023-02-03T14:08:55.973Z,29.38
2023-02-03T14:11:44.270Z,26.95
2023-02-03T14:14:42.930Z,27.42
2023-02-03T14:17:44.765Z,26.48
2023-02-03T14:21:04.142Z,26.20
2023-02-03T14:23:42.998Z,25.20
2023-02-03T14:26:20.903Z,24.45
2023-02-03T14:28:53.855Z,26.45
2023-02-03T14:31:25.133Z,28.38
2023-02-03T14:34:15.540Z,28.80
2023-02-03T14:36:55.775Z,29.05
2023-02-03T14:39:55.416Z,29.33
2023-02-03T14:43:11.305Z,25.90
2023-02-03T14:46:00.063Z,26.42
2023-02-03T14:48:46.625Z,26.85
2023-02-03T14:51:27.464Z,27.20
2023-02-03T14:54:12.319Z,28.30
2023-02-03T14:57:08.105Z,29.38
2023-02-03T14:59:43.182Z,27.92
2023-02-03T15:02:32.269Z,29.15
2023-02-03T15:05:39.101Z,25.38
2023-02-03T15:08:50.609Z,24.65
2023-02-03T15:11:31.887Z,25.55
2023-02-03T15:14:19.866Z,24.42
2023-02-03T15:16:57.566Z,23.90
2023-02-03T15:19:33.399Z,23.00
2023-02-03T15:22:04.307Z,20.80
2023-02-03T15:24:41.656Z,20.25
2023-02-03T15:27:24.903Z,20.05
2023-02-03T15:30:01.356Z,19.42
2023-02-03T15:32:35.465Z,18.92
2023-02-03T15:35:17.614Z,19.25
2023-02-03T15:37:51.504Z,19.40
2023-02-03T15:40:30.364Z,19.33
2023-02-03T15:43:05.505Z,19.05
2023-02-03T15:45:37.945Z,18.73
2023-02-03T15:48:13.504Z,17.98
2023-02-03T15:50:54.194Z,18.30
2023-02-03T15:53:31.963Z,19.40
2023-02-03T15:56:18.687Z,18.70
2023-02-03T15:58:50.645Z,17.95
2023-02-03T16:01:26.509Z,19.17
2023-02-03T16:03:58.905Z,19.40
2023-02-03T16:06:39.320Z,26.75
2023-02-03T16:09:29.277Z,28.33
2023-02-03T16:12:09.493Z,23.50
2023-02-03T16:14:41.171Z,22.77
2023-02-03T16:17:27.316Z,19.33
2023-02-03T16:20:26.192Z,19.05
2023-02-03T16:23:08.948Z,16.85
2023-02-03T16:25:39.896Z,15.98
2023-02-03T16:28:36.900Z,16.40
2023-02-03T16:31:32.714Z,13.45
2023-02-03T16:34:21.615Z,11.82
2023-02-03T16:37:07.343Z,10.98
2023-02-03T16:39:56.189Z,10.30
2023-02-03T16:42:47.195Z,11.68
2023-02-03T16:45:36.631Z,9.85
2023-02-03T16:48:24.678Z,8.52
2023-02-03T16:50:58.214Z,11.15
2023-02-03T16:53:33.207Z,8.57
2023-02-03T16:56:05.873Z,7.57
2023-02-03T16:58:39.000Z,7.03
2023-02-03T17:01:11.714Z,5.53
2023-02-03T17:03:42.089Z,5.60
2023-02-03T17:06:13.067Z,5.80
2023-02-03T17:08:46.798Z,5.30
2023-02-03T17:11:20.782Z,5.50
2023-02-03T17:13:54.492Z,5.30
2023-02-03T17:16:24.993Z,5.75
2023-02-03T17:18:58.427Z,5.50
2023-02-03T17:21:30.072Z,6.18
2023-02-03T17:24:00.569Z,6.18
2023-02-03T17:26:35.285Z,6.72
2023-02-03T17:29:04.462Z,7.07
2023-02-03T17:31:33.646Z,6.47
2023-02-03T17:34:03.910Z,6.65
2023-02-03T17:36:41.352Z,7.32
2023-02-03T17:55:33.818Z,8.80
2023-02-03T17:58:03.994Z,8.60
2023-02-03T18:00:33.015Z,10.57
2023-02-03T18:03:02.019Z,21.27
2023-02-03T18:05:30.597Z,13.10
2023-02-03T18:08:03.347Z,12.65
2023-02-03T18:10:37.984Z,10.07
2023-02-03T18:13:08.349Z,11.32
2023-02-03T18:15:37.887Z,12.05
2023-02-03T18:18:06.760Z,12.70
2023-02-03T18:20:37.116Z,10.63
2023-02-03T18:23:05.620Z,9.68
2023-02-03T18:25:39.882Z,9.40
2023-02-03T18:28:10.396Z,9.63
2023-02-03T18:30:39.406Z,8.70
2023-02-03T18:33:08.187Z,9.43
2023-02-03T18:35:41.126Z,9.57
2023-02-03T18:38:13.123Z,9.32
2023-02-03T18:43:14.732Z,8.48
2023-02-03T18:45:47.284Z,8.73
2023-02-03T18:48:16.342Z,8.05
2023-02-03T18:50:45.845Z,7.05
2023-02-03T18:53:14.504Z,7.13
2023-02-03T18:55:44.770Z,7.50
2023-02-03T18:58:17.983Z,5.97
2023-02-03T19:00:47.565Z,7.43
2023-02-03T19:03:16.945Z,6.50
2023-02-03T19:05:45.877Z,6.45
2023-02-03T19:08:14.848Z,4.35
2023-02-03T19:10:45.137Z,5.68
2023-02-03T19:13:15.395Z,4.60
2023-02-03T19:15:49.064Z,4.82
2023-02-03T19:18:20.654Z,4.45
2023-02-03T19:20:49.974Z,5.25
2023-02-03T19:23:20.416Z,5.20
2023-02-03T19:25:52.352Z,4.30
2023-02-03T19:28:30.399Z,4.57
2023-02-03T19:31:07.968Z,4.63
2023-02-03T19:33:37.741Z,4.20
2023-02-03T19:36:07.251Z,5.15
2023-02-03T19:38:36.483Z,5.45
2023-02-03T19:41:07.520Z,5.10
2023-02-03T19:43:40.046Z,4.72
2023-02-03T19:46:09.163Z,3.53
2023-02-03T19:48:38.742Z,3.97
2023-02-03T19:51:08.612Z,2.80
2023-02-03T19:53:38.488Z,3.75
2023-02-03T19:56:07.561Z,4.45
2023-02-03T19:58:38.742Z,3.53
2023-02-03T20:01:10.398Z,2.58
2023-02-03T20:03:39.776Z,3.28
2023-02-03T20:06:10.358Z,2.53
2023-02-03T20:08:39.121Z,3.47
2023-02-03T20:11:07.972Z,3.13
2023-02-03T20:13:38.868Z,2.85
2023-02-03T20:16:08.064Z,3.30
2023-02-03T20:18:38.136Z,2.65
2023-02-03T20:21:08.158Z,2.40
2023-02-03T20:23:37.859Z,2.65
2023-02-03T20:26:07.001Z,2.55
2023-02-03T20:28:36.904Z,2.10
2023-02-03T20:31:06.591Z,1.92
2023-02-03T20:33:37.766Z,2.10
2023-02-03T20:36:10.371Z,1.92
2023-02-03T20:38:40.976Z,2.50
2023-02-03T20:41:13.855Z,2.10
2023-02-03T20:43:44.125Z,2.33
2023-02-03T20:46:15.567Z,2.20
2023-02-03T20:48:46.840Z,2.10
2023-02-03T20:51:17.456Z,2.00
2023-02-03T20:53:46.223Z,2.05
2023-02-03T20:56:17.414Z,2.28
2023-02-03T20:58:50.157Z,2.60
2023-02-03T21:01:24.001Z,2.38
2023-02-03T21:04:11.950Z,2.40
2023-02-03T21:06:41.312Z,2.70
2023-02-03T21:09:15.020Z,2.28
2023-02-03T21:11:44.445Z,3.17
2023-02-03T21:14:23.862Z,2.50
2023-02-03T21:16:54.189Z,2.40
2023-02-03T21:19:29.937Z,2.55
2023-02-03T21:22:00.396Z,2.80
2023-02-03T21:24:30.684Z,2.47
2023-02-03T21:27:00.737Z,2.20
2023-02-03T21:29:34.432Z,2.45
2023-02-03T21:32:02.958Z,2.08
2023-02-03T21:34:33.653Z,2.58
2023-02-03T21:37:08.873Z,2.47
2023-02-03T21:39:37.456Z,2.28
2023-02-03T21:42:41.430Z,2.13
2023-02-03T21:45:40.245Z,2.60
2023-02-03T21:48:27.799Z,2.45
2023-02-03T21:50:57.210Z,2.67
2023-02-03T21:53:28.755Z,2.47
2023-02-03T21:58:30.720Z,2.70
2023-02-03T22:01:01.823Z,2.70
2023-02-03T22:03:35.545Z,2.50
2023-02-03T22:06:17.993Z,2.70
2023-02-03T22:08:48.930Z,2.40
2023-02-03T22:11:19.554Z,3.13
2023-02-03T22:13:49.265Z,2.95
2023-02-03T22:16:20.389Z,2.72
2023-02-03T22:18:50.309Z,2.70
2023-02-03T22:21:19.618Z,2.28
2023-02-03T22:23:49.660Z,2.78
2023-02-03T22:26:22.151Z,2.65
2023-02-03T22:28:50.782Z,3.30
2023-02-03T22:31:21.838Z,2.78
2023-02-03T22:33:50.554Z,3.03
2023-02-03T22:36:18.937Z,2.78
2023-02-03T22:38:48.088Z,3.17
2023-02-03T22:41:17.507Z,2.63
2023-02-03T22:43:47.291Z,3.25
2023-02-03T22:46:16.329Z,2.80
2023-02-03T22:48:48.040Z,2.85
2023-02-03T22:51:17.003Z,2.58
2023-02-03T22:53:45.648Z,2.72
2023-02-03T22:56:14.045Z,2.75
2023-02-03T22:58:42.943Z,2.45
2023-02-03T23:01:11.943Z,3.10
2023-02-03T23:03:40.619Z,3.28
2023-02-03T23:06:11.789Z,3.53
2023-02-03T23:08:40.474Z,3.50
2023-02-03T23:11:09.025Z,3.00
2023-02-03T23:13:37.313Z,2.95
2023-02-03T23:16:09.123Z,3.45
2023-02-03T23:18:38.716Z,3.42
2023-02-03T23:21:09.944Z,3.38
2023-02-03T23:23:38.387Z,3.22
2023-02-03T23:26:07.300Z,3.50
2023-02-03T23:28:36.051Z,3.38
2023-02-03T23:31:04.877Z,3.53
2023-02-03T23:33:33.220Z,3.13
2023-02-03T23:36:00.601Z,3.35
2023-02-03T23:38:33.386Z,3.10
2023-02-03T23:41:02.203Z,3.80
2023-02-03T23:43:31.887Z,3.15
2023-02-03T23:46:00.188Z,2.83
2023-02-03T23:48:29.230Z,3.60
2023-02-03T23:50:59.089Z,3.15
2023-02-03T23:53:27.438Z,3.00
2023-02-03T23:56:00.238Z,3.22
2023-02-03T23:58:29.576Z,3.53
